Time,TemperatureF,DewpointF,PressureIn,WindDirection,WindDirectionDegrees,WindSpeedMPH,WindSpeedGustMPH,Humidity,HourlyPrecipIn,Conditions,Clouds,dailyrainin,SoftwareType,DateUTC
2013-09-30 00:11:00,52.2,50.0,30.09,NNE,25,0.0,0.0,91,0.00,,,0.00,weatherlink.com 1.10,2013-09-30 04:11:00,
2013-09-30 00:26:00,52.0,49.0,30.09,NNE,25,0.0,0.0,90,0.00,,,0.00,weatherlink.com 1.10,2013-09-30 04:26:00,
2013-09-30 00:41:00,51.7,49.0,30.09,NNE,25,0.0,0.0,90,0.00,,,0.00,weatherlink.com 1.10,2013-09-30 04:41:00,
2013-09-30 00:56:00,51.3,49.0,30.09,NNE,25,0.0,0.0,90,0.00,,,0.00,weatherlink.com 1.10,2013-09-30 04:56:00,
2013-09-30 01:26:00,50.5,48.0,30.09,NNE,25,0.0,0.0,90,0.00,,,0.00,weatherlink.com 1.10,2013-09-30 05:26:00,
2013-09-30 01:41:00,50.3,47.0,30.10,NNE,25,0.0,0.0,89,0.00,,,0.00,weatherlink.com 1.10,2013-09-30 05:41:00,
2013-09-30 01:56:00,50.0,47.0,30.10,NNE,25,0.0,0.0,90,0.00,,,0.00,weatherlink.com 1.10,2013-09-30 05:56:00,
2013-09-30 02:11:00,49.8,47.0,30.10,NNE,25,0.0,0.0,89,0.00,,,0.00,weatherlink.com 1.10,2013-09-30 06:11:00,
2013-09-30 02:26:00,49.5,46.0,30.09,NNE,25,0.0,0.0,89,0.00,,,0.00,weatherlink.com 1.10,2013-09-30 06:26:00,
2013-09-30 02:41:00,49.5,46.0,30.08,NNE,25,0.0,0.0,87,0.00,,,0.00,weatherlink.com 1.10,2013-09-30 06:41:00,
2013-09-30 02:56:00,49.2,46.0,30.09,NNE,25,0.0,0.0,88,0.00,,,0.00,weatherlink.com 1.10,2013-09-30 06:56:00,
2013-09-30 03:11:00,49.0,46.0,30.08,NNE,25,0.0,0.0,88,0.00,,,0.00,weatherlink.com 1.10,2013-09-30 07:11:00,
2013-09-30 03:26:00,49.0,45.0,30.08,NNE,25,0.0,0.0,86,0.00,,,0.00,weatherlink.com 1.10,2013-09-30 07:26:00,
2013-09-30 03:41:00,48.7,45.0,30.08,NNE,25,0.0,0.0,87,0.00,,,0.00,weatherlink.com 1.10,2013-09-30 07:41:00,
2013-09-30 03:56:00,48.4,45.0,30.08,NNE,25,0.0,0.0,87,0.00,,,0.00,weatherlink.com 1.10,2013-09-30 07:56:00,
2013-09-30 04:11:00,48.2,44.0,30.08,NNE,25,0.0,0.0,86,0.00,,,0.00,weatherlink.com 1.10,2013-09-30 08:11:00,
2013-09-30 04:26:00,48.0,44.0,30.08,NNE,25,0.0,0.0,86,0.00,,,0.00,weatherlink.com 1.10,2013-09-30 08:26:00,
2013-09-30 04:41:00,47.8,44.0,30.08,NNE,25,0.0,0.0,86,0.00,,,0.00,weatherlink.com 1.10,2013-09-30 08:41:00,
2013-09-30 04:56:00,47.4,44.0,30.08,NNE,25,0.0,0.0,87,0.00,,,0.00,weatherlink.com 1.10,2013-09-30 08:56:00,
2013-09-30 05:11:00,47.3,43.0,30.09,NNE,25,0.0,0.0,86,0.00,,,0.00,weatherlink.com 1.10,2013-09-30 09:11:00,
2013-09-30 05:26:00,47.2,43.0,30.09,NNE,25,0.0,0.0,85,0.01,,,0.01,weatherlink.com 1.10,2013-09-30 09:26:00,
2013-09-30 05:41:00,47.2,43.0,30.09,NNE,25,0.0,0.0,84,0.01,,,0.01,weatherlink.com 1.10,2013-09-30 09:41:00,
2013-09-30 05:56:00,47.4,42.0,30.09,NNE,25,0.0,0.0,82,0.01,,,0.01,weatherlink.com 1.10,2013-09-30 09:56:00,
2013-09-30 06:12:00,47.2,43.0,30.09,NNE,25,0.0,0.0,84,0.00,,,0.01,weatherlink.com 1.10,2013-09-30 10:12:00,
2013-09-30 06:27:00,47.1,42.0,30.09,NNE,25,0.0,0.0,83,0.00,,,0.01,weatherlink.com 1.10,2013-09-30 10:27:00,
2013-09-30 06:42:00,46.9,42.0,30.09,NNE,25,0.0,0.0,83,0.00,,,0.01,weatherlink.com 1.10,2013-09-30 10:42:00,
2013-09-30 06:57:00,46.7,42.0,30.10,NNE,25,0.0,0.0,84,0.00,,,0.01,weatherlink.com 1.10,2013-09-30 10:57:00,
2013-09-30 07:12:00,46.7,42.0,30.10,NNE,25,0.0,0.0,83,0.00,,,0.01,weatherlink.com 1.10,2013-09-30 11:12:00,
2013-09-30 07:27:00,46.8,41.0,30.11,NNE,25,0.0,0.0,81,0.00,,,0.01,weatherlink.com 1.10,2013-09-30 11:27:00,
2013-09-30 08:12:00,49.6,43.0,30.10,NNE,25,0.0,0.0,79,0.00,,,0.01,weatherlink.com 1.10,2013-09-30 12:12:00,
2013-09-30 08:27:00,52.3,47.0,30.10,NNE,25,0.0,2.0,81,0.00,,,0.01,weatherlink.com 1.10,2013-09-30 12:27:00,
2013-09-30 08:42:00,54.7,49.0,30.11,NNE,25,1.0,4.0,81,0.00,,,0.01,weatherlink.com 1.10,2013-09-30 12:42:00,
2013-09-30 08:57:00,55.9,51.0,30.10,NNW,328,2.0,4.0,82,0.00,,,0.01,weatherlink.com 1.10,2013-09-30 12:57:00,
2013-09-30 09:12:00,58.1,55.0,30.10,NNW,332,1.0,5.0,90,0.00,,,0.01,weatherlink.com 1.10,2013-09-30 13:12:00,
2013-09-30 09:27:00,60.9,54.0,30.10,NW,319,1.0,5.0,78,0.00,,,0.01,weatherlink.com 1.10,2013-09-30 13:27:00,
2013-09-30 09:42:00,62.9,55.0,30.09,NW,319,0.0,4.0,74,0.00,,,0.01,weatherlink.com 1.10,2013-09-30 13:42:00,
2013-09-30 09:57:00,64.5,55.0,30.09,NW,319,1.0,3.0,72,0.00,,,0.01,weatherlink.com 1.10,2013-09-30 13:57:00,
2013-09-30 10:12:00,66.3,54.0,30.09,NW,319,0.0,4.0,64,0.00,,,0.01,weatherlink.com 1.10,2013-09-30 14:12:00,
2013-09-30 10:27:00,69.2,54.0,30.09,NW,319,0.0,3.0,59,0.00,,,0.01,weatherlink.com 1.10,2013-09-30 14:27:00,
2013-09-30 10:42:00,70.7,57.0,30.09,NW,319,2.0,3.0,62,0.00,,,0.01,weatherlink.com 1.10,2013-09-30 14:42:00,
2013-09-30 10:57:00,71.5,56.0,30.08,NNW,329,2.0,7.0,58,0.00,,,0.01,weatherlink.com 1.10,2013-09-30 14:57:00,
2013-09-30 11:27:00,72.1,55.0,30.07,NNW,328,0.0,3.0,56,0.00,,,0.01,weatherlink.com 1.10,2013-09-30 15:27:00,
2013-09-30 11:42:00,73.3,56.0,30.07,NW,325,0.0,4.0,55,0.00,,,0.01,weatherlink.com 1.10,2013-09-30 15:42:00,
2013-09-30 11:57:00,73.8,54.0,30.07,North,355,2.0,3.0,51,0.00,,,0.01,weatherlink.com 1.10,2013-09-30 15:57:00,
2013-09-30 12:12:00,73.1,56.0,30.07,North,5,0.0,5.0,56,0.00,,,0.01,weatherlink.com 1.10,2013-09-30 16:12:00,
2013-09-30 12:28:00,75.3,57.0,30.06,North,5,0.0,1.0,53,0.00,,,0.01,weatherlink.com 1.10,2013-09-30 16:28:00,
2013-09-30 12:43:00,76.0,57.0,30.06,NNW,343,0.0,1.0,52,0.00,,,0.01,weatherlink.com 1.10,2013-09-30 16:43:00,
2013-09-30 12:58:00,76.5,56.0,30.05,ESE,116,1.0,4.0,50,0.00,,,0.01,weatherlink.com 1.10,2013-09-30 16:58:00,
2013-09-30 13:13:00,73.1,54.0,30.04,NW,326,0.0,8.0,51,0.00,,,0.01,weatherlink.com 1.10,2013-09-30 17:13:00,
2013-09-30 13:43:00,72.5,55.0,30.03,NW,321,3.0,8.0,55,0.00,,,0.01,weatherlink.com 1.10,2013-09-30 17:43:00,
2013-09-30 13:58:00,71.7,56.0,30.03,NNW,342,3.0,10.0,58,0.00,,,0.01,weatherlink.com 1.10,2013-09-30 17:58:00,
2013-09-30 14:13:00,70.6,56.0,30.03,NNW,342,1.0,6.0,60,0.00,,,0.01,weatherlink.com 1.10,2013-09-30 18:13:00,
2013-09-30 14:28:00,71.9,56.0,30.03,NNW,333,2.0,8.0,57,0.00,,,0.01,weatherlink.com 1.10,2013-09-30 18:28:00,
2013-09-30 14:43:00,72.0,54.0,30.02,NW,304,5.0,9.0,54,0.00,,,0.01,weatherlink.com 1.10,2013-09-30 18:43:00,
2013-09-30 14:58:00,73.3,53.0,30.02,NNW,336,3.0,7.0,50,0.00,,,0.01,weatherlink.com 1.10,2013-09-30 18:58:00,
2013-09-30 15:13:00,74.3,56.0,30.02,North,5,2.0,6.0,53,0.00,,,0.01,weatherlink.com 1.10,2013-09-30 19:13:00,
2013-09-30 15:28:00,74.9,54.0,30.01,NW,325,1.0,4.0,48,0.00,,,0.01,weatherlink.com 1.10,2013-09-30 19:28:00,
2013-09-30 15:43:00,74.5,55.0,30.01,NNW,333,2.0,7.0,50,0.00,,,0.01,weatherlink.com 1.10,2013-09-30 19:43:00,
2013-09-30 16:13:00,73.6,55.0,30.00,WNW,296,1.0,4.0,52,0.00,,,0.01,weatherlink.com 1.10,2013-09-30 20:13:00,
2013-09-30 16:28:00,75.1,55.0,30.00,WNW,296,0.0,2.0,50,0.00,,,0.01,weatherlink.com 1.10,2013-09-30 20:28:00,
2013-09-30 16:43:00,75.3,54.0,30.00,NW,318,0.0,3.0,47,0.00,,,0.01,weatherlink.com 1.10,2013-09-30 20:43:00,
2013-09-30 16:58:00,78.0,56.0,30.00,NW,318,0.0,3.0,46,0.00,,,0.01,weatherlink.com 1.10,2013-09-30 20:58:00,
2013-09-30 17:13:00,78.3,56.0,30.00,NW,318,0.0,3.0,46,0.00,,,0.01,weatherlink.com 1.10,2013-09-30 21:13:00,
2013-09-30 17:28:00,76.7,55.0,30.00,NW,317,0.0,3.0,47,0.00,,,0.01,weatherlink.com 1.10,2013-09-30 21:28:00,
2013-09-30 17:43:00,75.2,57.0,30.00,NW,317,0.0,0.0,53,0.00,,,0.01,weatherlink.com 1.10,2013-09-30 21:43:00,
2013-09-30 17:58:00,73.3,58.0,30.00,NW,317,0.0,0.0,59,0.00,,,0.01,weatherlink.com 1.10,2013-09-30 21:58:00,
2013-09-30 18:13:00,71.4,58.0,30.00,NW,317,0.0,0.0,62,0.00,,,0.01,weatherlink.com 1.10,2013-09-30 22:13:00,
2013-09-30 18:28:00,69.7,57.0,30.00,NW,317,0.0,0.0,65,0.00,,,0.01,weatherlink.com 1.10,2013-09-30 22:28:00,
2013-09-30 18:43:00,68.0,57.0,30.00,NW,317,0.0,0.0,67,0.00,,,0.01,weatherlink.com 1.10,2013-09-30 22:43:00,
2013-09-30 18:58:00,66.2,56.0,30.00,NW,317,0.0,0.0,70,0.00,,,0.01,weatherlink.com 1.10,2013-09-30 22:58:00,
2013-09-30 19:13:00,64.5,56.0,30.00,NW,317,0.0,0.0,73,0.00,,,0.01,weatherlink.com 1.10,2013-09-30 23:13:00,
2013-09-30 19:28:00,63.0,55.0,30.01,NW,317,0.0,0.0,76,0.00,,,0.01,weatherlink.com 1.10,2013-09-30 23:28:00,
2013-09-30 19:43:00,61.7,55.0,30.01,NW,317,0.0,0.0,79,0.00,,,0.01,weatherlink.com 1.10,2013-09-30 23:43:00,
2013-09-30 19:58:00,60.6,54.0,30.01,NW,317,0.0,0.0,80,0.00,,,0.01,weatherlink.com 1.10,2013-09-30 23:58:00,
2013-09-30 20:13:00,59.6,54.0,30.02,NW,317,0.0,0.0,82,0.00,,,0.01,weatherlink.com 1.10,2013-10-01 00:13:00,
2013-09-30 20:28:00,58.7,54.0,30.02,NW,317,0.0,0.0,83,0.00,,,0.01,weatherlink.com 1.10,2013-10-01 00:28:00,
2013-09-30 20:43:00,58.0,54.0,30.02,NW,317,0.0,0.0,86,0.00,,,0.01,weatherlink.com 1.10,2013-10-01 00:43:00,
2013-09-30 20:58:00,57.2,53.0,30.02,NW,317,0.0,0.0,87,0.00,,,0.01,weatherlink.com 1.10,2013-10-01 00:58:00,
2013-09-30 21:13:00,56.6,53.0,30.02,NW,317,0.0,0.0,87,0.00,,,0.01,weatherlink.com 1.10,2013-10-01 01:13:00,
2013-09-30 21:28:00,56.0,52.0,30.02,NW,317,0.0,0.0,87,0.00,,,0.01,weatherlink.com 1.10,2013-10-01 01:28:00,
2013-09-30 21:43:00,55.6,53.0,30.02,NW,317,0.0,0.0,89,0.00,,,0.01,weatherlink.com 1.10,2013-10-01 01:43:00,
2013-09-30 21:58:00,55.1,52.0,30.02,NW,317,0.0,0.0,90,0.00,,,0.01,weatherlink.com 1.10,2013-10-01 01:58:00,
2013-09-30 22:13:00,54.6,52.0,30.03,NW,317,0.0,0.0,89,0.00,,,0.01,weatherlink.com 1.10,2013-10-01 02:13:00,
2013-09-30 22:28:00,54.1,51.0,30.03,NW,317,0.0,0.0,88,0.00,,,0.01,weatherlink.com 1.10,2013-10-01 02:28:00,
2013-09-30 22:43:00,53.9,51.0,30.03,NW,317,0.0,0.0,89,0.00,,,0.01,weatherlink.com 1.10,2013-10-01 02:43:00,
2013-09-30 22:58:00,53.7,51.0,30.03,NW,317,0.0,0.0,90,0.00,,,0.01,weatherlink.com 1.10,2013-10-01 02:58:00,
2013-09-30 23:13:00,53.5,51.0,30.03,NW,317,0.0,0.0,90,0.00,,,0.01,weatherlink.com 1.10,2013-10-01 03:13:00,
2013-09-30 23:28:00,53.1,51.0,30.04,NW,317,0.0,0.0,91,0.00,,,0.01,weatherlink.com 1.10,2013-10-01 03:28:00,
2013-09-30 23:43:00,52.8,50.0,30.04,NW,317,0.0,0.0,91,0.00,,,0.01,weatherlink.com 1.10,2013-10-01 03:43:00,
2013-09-30 23:58:00,52.6,50.0,30.03,NW,317,0.0,0.0,90,0.00,,,0.01,weatherlink.com 1.10,2013-10-01 03:58:00,